createdAt,value
2022-08-25T00:16:26.097Z,4.5
2022-08-25T00:46:32.295Z,4.4
2022-08-25T01:16:31.401Z,4.7
2022-08-25T01:46:38.410Z,5
2022-08-25T02:16:42.897Z,5.7
2022-08-25T02:46:41.709Z,5.8
2022-08-25T03:16:44.076Z,5.9
2022-08-25T03:46:48.147Z,5.2
2022-08-25T04:16:50.162Z,5.4
2022-08-25T04:46:53.380Z,5.1
2022-08-25T05:16:55.876Z,4.5
2022-08-25T05:46:59.237Z,4.1
2022-08-25T06:17:01.897Z,3.9
2022-08-25T06:47:04.902Z,3.4
2022-08-25T07:17:10.469Z,3.1
2022-08-25T07:47:11.775Z,3
2022-08-25T08:17:16.404Z,2.9
2022-08-25T08:47:24.815Z,2.8
2022-08-25T09:17:28.091Z,3
2022-08-25T09:47:31.582Z,2.7
2022-08-25T10:17:36.775Z,2.7
2022-08-25T10:47:54.785Z,2.3
2022-08-25T11:17:51.696Z,2.4
2022-08-25T11:48:02.425Z,2
2022-08-25T12:18:15.266Z,2
2022-08-25T12:48:18.719Z,2
2022-08-25T13:18:26.494Z,2.1
2022-08-25T13:48:31.801Z,2.5
2022-08-25T14:18:33.359Z,2.7
2022-08-25T14:48:39.137Z,3.3
2022-08-25T15:18:42.501Z,3.7
2022-08-25T15:48:50.078Z,4.1
2022-08-25T16:18:56.633Z,4.9
2022-08-25T16:49:03.274Z,5.8
2022-08-25T17:19:11.803Z,5.7
2022-08-25T17:49:14.684Z,7.2
2022-08-25T18:19:18.595Z,8
2022-08-25T18:49:36.805Z,8.8
2022-08-25T19:19:31.187Z,6.3
2022-08-25T19:49:34.019Z,6.2
2022-08-25T20:19:36.165Z,6.6
2022-08-25T20:49:38.919Z,4.1
2022-08-25T21:19:42.024Z,2.2
2022-08-25T21:49:45.427Z,1.8
2022-08-25T22:19:49.221Z,1.6
2022-08-25T22:49:52.161Z,1.5
2022-08-25T23:19:54.989Z,1.4
2022-08-25T23:49:58.262Z,1.3
